sensor_id;sensor_type;location;lat;lon;timestamp;temperature;humidity
23717;DHT22;22094;52.130;5.598;2023-07-29T00:00:45;16.90;12.70
23717;DHT22;22094;52.130;5.598;2023-07-29T00:03:10;17.20;31.80
23717;DHT22;22094;52.130;5.598;2023-07-29T00:05:40;17.00;22.80
23717;DHT22;22094;52.130;5.598;2023-07-29T00:08:06;17.10;29.60
23717;DHT22;22094;52.130;5.598;2023-07-29T00:10:33;17.00;1.00
23717;DHT22;22094;52.130;5.598;2023-07-29T00:13:00;17.00;1.00
23717;DHT22;22094;52.130;5.598;2023-07-29T00:15:26;16.80;1.00
23717;DHT22;22094;52.130;5.598;2023-07-29T00:17:52;16.90;1.00
23717;DHT22;22094;52.130;5.598;2023-07-29T00:20:18;16.90;1.00
23717;DHT22;22094;52.130;5.598;2023-07-29T00:22:43;16.80;1.00
23717;DHT22;22094;52.130;5.598;2023-07-29T00:25:09;16.70;35.70
23717;DHT22;22094;52.130;5.598;2023-07-29T00:27:35;16.70;99.90
23717;DHT22;22094;52.130;5.598;2023-07-29T00:30:01;16.70;99.90
23717;DHT22;22094;52.130;5.598;2023-07-29T00:32:28;16.70;99.90
23717;DHT22;22094;52.130;5.598;2023-07-29T00:34:54;16.60;99.90
23717;DHT22;22094;52.130;5.598;2023-07-29T00:37:23;16.60;99.90
23717;DHT22;22094;52.130;5.598;2023-07-29T00:39:49;16.40;99.90
23717;DHT22;22094;52.130;5.598;2023-07-29T00:42:14;16.40;99.90
23717;DHT22;22094;52.130;5.598;2023-07-29T00:44:40;16.40;99.90
23717;DHT22;22094;52.130;5.598;2023-07-29T00:47:07;16.40;99.90
23717;DHT22;22094;52.130;5.598;2023-07-29T00:49:33;16.40;99.90
23717;DHT22;22094;52.130;5.598;2023-07-29T00:51:59;16.40;1.00
23717;DHT22;22094;52.130;5.598;2023-07-29T00:54:24;16.40;1.00
23717;DHT22;22094;52.130;5.598;2023-07-29T00:56:50;16.40;1.00
23717;DHT22;22094;52.130;5.598;2023-07-29T00:59:16;16.50;1.00
23717;DHT22;22094;52.130;5.598;2023-07-29T01:01:42;16.60;1.00
23717;DHT22;22094;52.130;5.598;2023-07-29T01:04:08;16.70;1.00
23717;DHT22;22094;52.130;5.598;2023-07-29T01:09:05;16.90;99.90
23717;DHT22;22094;52.130;5.598;2023-07-29T01:14:36;16.90;99.90
23717;DHT22;22094;52.130;5.598;2023-07-29T01:17:08;17.10;99.90
23717;DHT22;22094;52.130;5.598;2023-07-29T01:19:55;16.70;99.90
23717;DHT22;22094;52.130;5.598;2023-07-29T01:22:25;16.60;99.90
23717;DHT22;22094;52.130;5.598;2023-07-29T01:24:51;16.50;99.90
23717;DHT22;22094;52.130;5.598;2023-07-29T01:27:17;16.50;1.00
23717;DHT22;22094;52.130;5.598;2023-07-29T01:29:42;16.50;1.00
23717;DHT22;22094;52.130;5.598;2023-07-29T01:32:14;16.50;1.00
23717;DHT22;22094;52.130;5.598;2023-07-29T01:34:48;16.50;1.00
23717;DHT22;22094;52.130;5.598;2023-07-29T01:37:22;16.50;1.00
23717;DHT22;22094;52.130;5.598;2023-07-29T01:39:54;16.60;1.00
23717;DHT22;22094;52.130;5.598;2023-07-29T01:42:21;16.90;1.00
23717;DHT22;22094;52.130;5.598;2023-07-29T01:44:47;16.80;1.00
23717;DHT22;22094;52.130;5.598;2023-07-29T01:47:13;16.80;1.00
23717;DHT22;22094;52.130;5.598;2023-07-29T01:49:39;16.80;1.00
23717;DHT22;22094;52.130;5.598;2023-07-29T01:52:05;16.80;1.00
23717;DHT22;22094;52.130;5.598;2023-07-29T01:54:30;16.90;1.00
23717;DHT22;22094;52.130;5.598;2023-07-29T01:56:56;16.90;1.00
23717;DHT22;22094;52.130;5.598;2023-07-29T01:59:22;16.90;1.00
23717;DHT22;22094;52.130;5.598;2023-07-29T02:01:47;16.90;1.00
23717;DHT22;22094;52.130;5.598;2023-07-29T02:04:14;17.00;1.00
23717;DHT22;22094;52.130;5.598;2023-07-29T02:06:39;17.00;1.00
23717;DHT22;22094;52.130;5.598;2023-07-29T02:09:05;17.00;1.00
23717;DHT22;22094;52.130;5.598;2023-07-29T02:11:31;17.10;1.00
23717;DHT22;22094;52.130;5.598;2023-07-29T02:13:57;17.10;1.00
23717;DHT22;22094;52.130;5.598;2023-07-29T02:16:23;17.00;1.00
23717;DHT22;22094;52.130;5.598;2023-07-29T02:18:49;17.10;1.00
23717;DHT22;22094;52.130;5.598;2023-07-29T02:21:18;17.00;1.00
23717;DHT22;22094;52.130;5.598;2023-07-29T02:23:43;17.10;1.00
23717;DHT22;22094;52.130;5.598;2023-07-29T02:26:09;17.10;1.00
23717;DHT22;22094;52.130;5.598;2023-07-29T02:28:35;17.00;1.00
23717;DHT22;22094;52.130;5.598;2023-07-29T02:31:17;17.00;1.00
23717;DHT22;22094;52.130;5.598;2023-07-29T02:33:44;17.00;1.00
23717;DHT22;22094;52.130;5.598;2023-07-29T02:36:11;16.90;1.00
23717;DHT22;22094;52.130;5.598;2023-07-29T02:38:37;16.90;1.00
23717;DHT22;22094;52.130;5.598;2023-07-29T02:41:03;16.90;1.00
23717;DHT22;22094;52.130;5.598;2023-07-29T02:43:28;16.80;1.00
23717;DHT22;22094;52.130;5.598;2023-07-29T02:45:54;16.80;1.00
23717;DHT22;22094;52.130;5.598;2023-07-29T02:48:19;16.80;1.00
23717;DHT22;22094;52.130;5.598;2023-07-29T02:50:45;16.80;1.00
23717;DHT22;22094;52.130;5.598;2023-07-29T02:53:11;16.70;1.00
23717;DHT22;22094;52.130;5.598;2023-07-29T02:55:40;16.70;1.00
23717;DHT22;22094;52.130;5.598;2023-07-29T02:58:06;16.70;1.00
23717;DHT22;22094;52.130;5.598;2023-07-29T03:00:32;16.70;1.00
23717;DHT22;22094;52.130;5.598;2023-07-29T03:02:58;16.70;1.00
23717;DHT22;22094;52.130;5.598;2023-07-29T03:05:27;16.70;1.00
23717;DHT22;22094;52.130;5.598;2023-07-29T03:07:52;16.70;1.00
23717;DHT22;22094;52.130;5.598;2023-07-29T03:10:18;16.70;1.00
23717;DHT22;22094;52.130;5.598;2023-07-29T03:12:44;16.60;1.00
23717;DHT22;22094;52.130;5.598;2023-07-29T03:15:09;16.70;1.00
23717;DHT22;22094;52.130;5.598;2023-07-29T03:17:35;16.70;1.00
23717;DHT22;22094;52.130;5.598;2023-07-29T03:20:01;16.70;1.00
23717;DHT22;22094;52.130;5.598;2023-07-29T03:22:26;16.70;1.00
23717;DHT22;22094;52.130;5.598;2023-07-29T03:24:52;16.60;1.00
23717;DHT22;22094;52.130;5.598;2023-07-29T03:27:18;16.60;1.00
23717;DHT22;22094;52.130;5.598;2023-07-29T03:29:43;16.60;1.00
23717;DHT22;22094;52.130;5.598;2023-07-29T03:32:09;16.60;1.00
23717;DHT22;22094;52.130;5.598;2023-07-29T03:34:35;16.60;1.00
23717;DHT22;22094;52.130;5.598;2023-07-29T03:37:01;16.60;1.00
23717;DHT22;22094;52.130;5.598;2023-07-29T03:39:27;16.60;1.00
23717;DHT22;22094;52.130;5.598;2023-07-29T03:41:52;16.50;1.00
23717;DHT22;22094;52.130;5.598;2023-07-29T03:44:18;16.50;1.00
23717;DHT22;22094;52.130;5.598;2023-07-29T03:46:44;16.50;1.00
23717;DHT22;22094;52.130;5.598;2023-07-29T03:49:10;16.50;1.00
23717;DHT22;22094;52.130;5.598;2023-07-29T03:51:36;16.50;1.00
23717;DHT22;22094;52.130;5.598;2023-07-29T03:54:02;16.50;1.00
23717;DHT22;22094;52.130;5.598;2023-07-29T03:56:29;16.50;1.00
23717;DHT22;22094;52.130;5.598;2023-07-29T03:59:02;16.60;1.00
23717;DHT22;22094;52.130;5.598;2023-07-29T04:01:30;16.60;1.00
23717;DHT22;22094;52.130;5.598;2023-07-29T04:03:55;16.50;1.00
23717;DHT22;22094;52.130;5.598;2023-07-29T04:06:21;16.80;1.00
23717;DHT22;22094;52.130;5.598;2023-07-29T04:08:48;16.60;1.00
23717;DHT22;22094;52.130;5.598;2023-07-29T04:11:14;16.30;1.00
23717;DHT22;22094;52.130;5.598;2023-07-29T04:13:40;16.50;1.00
23717;DHT22;22094;52.130;5.598;2023-07-29T04:16:06;16.50;1.00
23717;DHT22;22094;52.130;5.598;2023-07-29T04:18:32;16.40;1.00
23717;DHT22;22094;52.130;5.598;2023-07-29T04:20:58;16.50;1.00
23717;DHT22;22094;52.130;5.598;2023-07-29T04:23:24;16.40;1.00
23717;DHT22;22094;52.130;5.598;2023-07-29T04:25:49;16.40;1.00
23717;DHT22;22094;52.130;5.598;2023-07-29T04:28:15;16.40;1.00
23717;DHT22;22094;52.130;5.598;2023-07-29T04:30:41;16.60;1.00
23717;DHT22;22094;52.130;5.598;2023-07-29T04:33:07;16.40;1.00
23717;DHT22;22094;52.130;5.598;2023-07-29T04:35:32;16.40;1.00
23717;DHT22;22094;52.130;5.598;2023-07-29T04:37:58;16.80;1.00
23717;DHT22;22094;52.130;5.598;2023-07-29T04:40:24;16.40;1.00
23717;DHT22;22094;52.130;5.598;2023-07-29T04:42:51;16.50;1.00
23717;DHT22;22094;52.130;5.598;2023-07-29T04:45:17;16.50;1.00
23717;DHT22;22094;52.130;5.598;2023-07-29T04:47:42;16.50;1.00
23717;DHT22;22094;52.130;5.598;2023-07-29T04:50:08;16.50;1.00
23717;DHT22;22094;52.130;5.598;2023-07-29T04:52:34;16.50;1.00
23717;DHT22;22094;52.130;5.598;2023-07-29T04:55:00;16.50;1.00
23717;DHT22;22094;52.130;5.598;2023-07-29T04:57:25;16.50;1.00
23717;DHT22;22094;52.130;5.598;2023-07-29T04:59:51;16.60;1.00
23717;DHT22;22094;52.130;5.598;2023-07-29T05:02:17;16.50;1.00
23717;DHT22;22094;52.130;5.598;2023-07-29T05:04:42;16.80;1.00
23717;DHT22;22094;52.130;5.598;2023-07-29T05:07:08;16.40;1.00
23717;DHT22;22094;52.130;5.598;2023-07-29T05:09:34;16.40;1.00
23717;DHT22;22094;52.130;5.598;2023-07-29T05:14:26;16.50;99.90
23717;DHT22;22094;52.130;5.598;2023-07-29T05:16:52;16.60;99.90
23717;DHT22;22094;52.130;5.598;2023-07-29T05:19:17;16.60;99.90
23717;DHT22;22094;52.130;5.598;2023-07-29T05:21:43;16.70;76.90
23717;DHT22;22094;52.130;5.598;2023-07-29T05:26:35;16.90;1.00
23717;DHT22;22094;52.130;5.598;2023-07-29T05:29:00;19.80;99.90
23717;DHT22;22094;52.130;5.598;2023-07-29T05:31:26;17.00;99.90
23717;DHT22;22094;52.130;5.598;2023-07-29T05:33:53;17.00;99.90
23717;DHT22;22094;52.130;5.598;2023-07-29T05:36:18;18.60;99.90
23717;DHT22;22094;52.130;5.598;2023-07-29T05:43:37;17.20;99.90
23717;DHT22;22094;52.130;5.598;2023-07-29T05:46:02;17.10;99.90
23717;DHT22;22094;52.130;5.598;2023-07-29T05:50:54;17.20;99.90
23717;DHT22;22094;52.130;5.598;2023-07-29T05:53:20;17.50;22.30
23717;DHT22;22094;52.130;5.598;2023-07-29T05:55:45;17.40;1.00
23717;DHT22;22094;52.130;5.598;2023-07-29T05:58:11;17.20;1.00
23717;DHT22;22094;52.130;5.598;2023-07-29T06:05:29;17.60;30.90
23717;DHT22;22094;52.130;5.598;2023-07-29T06:07:54;17.70;1.00
23717;DHT22;22094;52.130;5.598;2023-07-29T06:10:20;18.50;1.00
23717;DHT22;22094;52.130;5.598;2023-07-29T06:12:46;17.70;1.00
23717;DHT22;22094;52.130;5.598;2023-07-29T06:17:38;17.90;99.90
23717;DHT22;22094;52.130;5.598;2023-07-29T06:20:04;19.40;99.90
23717;DHT22;22094;52.130;5.598;2023-07-29T06:22:31;18.10;99.90
23717;DHT22;22094;52.130;5.598;2023-07-29T06:24:57;18.30;1.00
23717;DHT22;22094;52.130;5.598;2023-07-29T06:27:22;18.20;99.90
23717;DHT22;22094;52.130;5.598;2023-07-29T06:29:50;18.40;99.90
23717;DHT22;22094;52.130;5.598;2023-07-29T06:32:15;18.50;99.90
23717;DHT22;22094;52.130;5.598;2023-07-29T06:37:07;18.90;1.00
23717;DHT22;22094;52.130;5.598;2023-07-29T06:41:58;19.10;99.90
23717;DHT22;22094;52.130;5.598;2023-07-29T06:44:24;19.40;99.90
23717;DHT22;22094;52.130;5.598;2023-07-29T06:49:15;19.20;99.90
23717;DHT22;22094;52.130;5.598;2023-07-29T06:51:41;18.00;99.90
23717;DHT22;22094;52.130;5.598;2023-07-29T06:54:06;19.80;99.90
23717;DHT22;22094;52.130;5.598;2023-07-29T06:56:32;20.90;99.90
23717;DHT22;22094;52.130;5.598;2023-07-29T07:01:24;20.10;99.90
23717;DHT22;22094;52.130;5.598;2023-07-29T07:03:49;19.60;99.90
23717;DHT22;22094;52.130;5.598;2023-07-29T07:15:59;17.80;99.90
23717;DHT22;22094;52.130;5.598;2023-07-29T07:18:25;19.90;96.70
23717;DHT22;22094;52.130;5.598;2023-07-29T07:20:51;20.20;99.90
23717;DHT22;22094;52.130;5.598;2023-07-29T07:23:18;20.20;84.60
23717;DHT22;22094;52.130;5.598;2023-07-29T07:25:44;20.30;40.50
23717;DHT22;22094;52.130;5.598;2023-07-29T07:30:39;20.10;22.80
23717;DHT22;22094;52.130;5.598;2023-07-29T07:33:06;20.00;37.60
23717;DHT22;22094;52.130;5.598;2023-07-29T07:35:32;20.00;99.90
23717;DHT22;22094;52.130;5.598;2023-07-29T07:40:25;20.20;59.90
23717;DHT22;22094;52.130;5.598;2023-07-29T07:45:16;19.10;99.90
23717;DHT22;22094;52.130;5.598;2023-07-29T07:50:09;21.50;94.00
23717;DHT22;22094;52.130;5.598;2023-07-29T07:52:35;20.50;25.90
23717;DHT22;22094;52.130;5.598;2023-07-29T07:55:00;20.60;16.40
23717;DHT22;22094;52.130;5.598;2023-07-29T07:57:26;20.50;1.00
23717;DHT22;22094;52.130;5.598;2023-07-29T08:02:18;20.40;23.80
23717;DHT22;22094;52.130;5.598;2023-07-29T08:04:51;19.80;9.30
23717;DHT22;22094;52.130;5.598;2023-07-29T08:07:17;18.90;11.70
23717;DHT22;22094;52.130;5.598;2023-07-29T08:09:42;22.40;1.00
23717;DHT22;22094;52.130;5.598;2023-07-29T08:12:08;21.50;1.00
23717;DHT22;22094;52.130;5.598;2023-07-29T08:14:43;20.60;1.00
23717;DHT22;22094;52.130;5.598;2023-07-29T08:17:23;21.80;1.00
23717;DHT22;22094;52.130;5.598;2023-07-29T08:27:13;21.10;1.00
23717;DHT22;22094;52.130;5.598;2023-07-29T08:29:39;20.40;1.00
23717;DHT22;22094;52.130;5.598;2023-07-29T08:32:05;21.40;1.00
23717;DHT22;22094;52.130;5.598;2023-07-29T08:36:56;21.80;1.00
23717;DHT22;22094;52.130;5.598;2023-07-29T08:42:01;22.80;1.00
23717;DHT22;22094;52.130;5.598;2023-07-29T08:44:35;22.20;1.00
23717;DHT22;22094;52.130;5.598;2023-07-29T08:47:03;22.60;1.00
23717;DHT22;22094;52.130;5.598;2023-07-29T08:49:30;22.40;1.00
23717;DHT22;22094;52.130;5.598;2023-07-29T08:51:57;23.30;1.00
23717;DHT22;22094;52.130;5.598;2023-07-29T08:54:23;22.70;1.00
23717;DHT22;22094;52.130;5.598;2023-07-29T08:56:48;22.10;1.00
23717;DHT22;22094;52.130;5.598;2023-07-29T09:01:42;22.20;1.00
23717;DHT22;22094;52.130;5.598;2023-07-29T09:04:08;21.40;1.00
23717;DHT22;22094;52.130;5.598;2023-07-29T09:06:35;21.40;1.00
23717;DHT22;22094;52.130;5.598;2023-07-29T09:11:28;19.90;1.00
23717;DHT22;22094;52.130;5.598;2023-07-29T09:13:53;23.70;1.00
23717;DHT22;22094;52.130;5.598;2023-07-29T09:16:22;23.00;1.00
23717;DHT22;22094;52.130;5.598;2023-07-29T09:18:49;21.80;1.00
23717;DHT22;22094;52.130;5.598;2023-07-29T09:21:17;23.80;1.00
23717;DHT22;22094;52.130;5.598;2023-07-29T09:26:11;22.20;1.00
23717;DHT22;22094;52.130;5.598;2023-07-29T09:28:38;22.40;1.00
23717;DHT22;22094;52.130;5.598;2023-07-29T09:31:04;21.70;1.00
23717;DHT22;22094;52.130;5.598;2023-07-29T09:33:33;23.10;1.00
23717;DHT22;22094;52.130;5.598;2023-07-29T09:38:28;21.60;1.00
23717;DHT22;22094;52.130;5.598;2023-07-29T09:40:57;24.50;1.00
23717;DHT22;22094;52.130;5.598;2023-07-29T09:43:33;22.90;1.00
23717;DHT22;22094;52.130;5.598;2023-07-29T09:46:03;21.30;1.00
23717;DHT22;22094;52.130;5.598;2023-07-29T09:48:33;24.00;1.00
23717;DHT22;22094;52.130;5.598;2023-07-29T09:50:58;22.30;1.00
23717;DHT22;22094;52.130;5.598;2023-07-29T09:53:24;22.50;1.00
23717;DHT22;22094;52.130;5.598;2023-07-29T09:55:50;22.00;1.00
23717;DHT22;22094;52.130;5.598;2023-07-29T09:58:25;22.00;1.00
23717;DHT22;22094;52.130;5.598;2023-07-29T10:00:52;23.30;1.00
23717;DHT22;22094;52.130;5.598;2023-07-29T10:03:19;22.30;1.00
23717;DHT22;22094;52.130;5.598;2023-07-29T10:05:46;22.20;1.00
23717;DHT22;22094;52.130;5.598;2023-07-29T10:08:13;21.60;1.00
23717;DHT22;22094;52.130;5.598;2023-07-29T10:10:39;21.60;1.00
23717;DHT22;22094;52.130;5.598;2023-07-29T10:13:07;21.50;1.00
23717;DHT22;22094;52.130;5.598;2023-07-29T10:15:33;21.40;1.00
23717;DHT22;22094;52.130;5.598;2023-07-29T10:17:59;21.50;1.00
23717;DHT22;22094;52.130;5.598;2023-07-29T10:20:25;23.60;1.00
23717;DHT22;22094;52.130;5.598;2023-07-29T10:22:51;21.40;1.00
23717;DHT22;22094;52.130;5.598;2023-07-29T10:25:22;21.00;1.00
23717;DHT22;22094;52.130;5.598;2023-07-29T10:27:57;21.20;1.00
23717;DHT22;22094;52.130;5.598;2023-07-29T10:32:52;21.40;1.00
23717;DHT22;22094;52.130;5.598;2023-07-29T10:35:18;21.10;1.00
23717;DHT22;22094;52.130;5.598;2023-07-29T10:37:44;18.90;1.00
23717;DHT22;22094;52.130;5.598;2023-07-29T10:40:11;21.00;1.00
23717;DHT22;22094;52.130;5.598;2023-07-29T10:42:38;20.90;1.00
23717;DHT22;22094;52.130;5.598;2023-07-29T10:45:20;22.60;1.00
23717;DHT22;22094;52.130;5.598;2023-07-29T10:47:47;21.60;1.00
23717;DHT22;22094;52.130;5.598;2023-07-29T10:50:21;22.10;1.00
23717;DHT22;22094;52.130;5.598;2023-07-29T10:52:51;22.10;1.00
23717;DHT22;22094;52.130;5.598;2023-07-29T10:55:30;22.40;1.00
23717;DHT22;22094;52.130;5.598;2023-07-29T10:58:08;22.40;1.00
23717;DHT22;22094;52.130;5.598;2023-07-29T11:00:35;21.90;1.00
23717;DHT22;22094;52.130;5.598;2023-07-29T11:03:02;22.80;1.00
23717;DHT22;22094;52.130;5.598;2023-07-29T11:05:49;20.90;1.00
23717;DHT22;22094;52.130;5.598;2023-07-29T11:08:29;24.50;1.00
23717;DHT22;22094;52.130;5.598;2023-07-29T11:11:05;24.50;1.00
23717;DHT22;22094;52.130;5.598;2023-07-29T11:13:35;22.70;1.00
23717;DHT22;22094;52.130;5.598;2023-07-29T11:16:02;22.20;1.00
23717;DHT22;22094;52.130;5.598;2023-07-29T11:18:32;22.10;99.90
23717;DHT22;22094;52.130;5.598;2023-07-29T11:20:59;22.30;1.00
23717;DHT22;22094;52.130;5.598;2023-07-29T11:23:33;21.30;99.90
23717;DHT22;22094;52.130;5.598;2023-07-29T11:25:59;21.50;99.90
23717;DHT22;22094;52.130;5.598;2023-07-29T11:28:26;22.10;99.90
23717;DHT22;22094;52.130;5.598;2023-07-29T11:30:52;21.20;99.90
23717;DHT22;22094;52.130;5.598;2023-07-29T11:33:24;21.30;99.90
23717;DHT22;22094;52.130;5.598;2023-07-29T11:38:17;20.70;1.00
23717;DHT22;22094;52.130;5.598;2023-07-29T11:40:43;20.70;99.90
23717;DHT22;22094;52.130;5.598;2023-07-29T11:43:08;20.00;1.00
23717;DHT22;22094;52.130;5.598;2023-07-29T11:45:34;20.10;1.00
23717;DHT22;22094;52.130;5.598;2023-07-29T11:48:09;20.20;1.00
23717;DHT22;22094;52.130;5.598;2023-07-29T11:50:35;20.30;1.00
23717;DHT22;22094;52.130;5.598;2023-07-29T11:53:00;20.00;99.90
23717;DHT22;22094;52.130;5.598;2023-07-29T11:55:26;20.60;97.20
23717;DHT22;22094;52.130;5.598;2023-07-29T11:57:52;19.80;1.00
23717;DHT22;22094;52.130;5.598;2023-07-29T12:00:21;19.50;90.70
23717;DHT22;22094;52.130;5.598;2023-07-29T12:02:48;19.20;99.90
23717;DHT22;22094;52.130;5.598;2023-07-29T12:05:14;19.20;99.90
23717;DHT22;22094;52.130;5.598;2023-07-29T12:07:42;19.10;99.90
23717;DHT22;22094;52.130;5.598;2023-07-29T12:10:09;18.80;99.90
23717;DHT22;22094;52.130;5.598;2023-07-29T12:12:48;19.80;1.00
23717;DHT22;22094;52.130;5.598;2023-07-29T12:15:25;18.60;99.90
23717;DHT22;22094;52.130;5.598;2023-07-29T12:17:53;20.20;1.00
23717;DHT22;22094;52.130;5.598;2023-07-29T12:22:52;20.20;1.00
23717;DHT22;22094;52.130;5.598;2023-07-29T12:27:44;20.60;1.00
23717;DHT22;22094;52.130;5.598;2023-07-29T12:30:10;20.50;99.90
23717;DHT22;22094;52.130;5.598;2023-07-29T12:32:46;20.70;1.00
23717;DHT22;22094;52.130;5.598;2023-07-29T12:40:09;22.00;99.90
23717;DHT22;22094;52.130;5.598;2023-07-29T12:42:35;21.70;99.90
23717;DHT22;22094;52.130;5.598;2023-07-29T12:45:00;23.40;80.70
23717;DHT22;22094;52.130;5.598;2023-07-29T12:47:26;22.80;16.40
23717;DHT22;22094;52.130;5.598;2023-07-29T12:52:18;22.80;1.00
23717;DHT22;22094;52.130;5.598;2023-07-29T12:57:09;22.50;1.00
23717;DHT22;22094;52.130;5.598;2023-07-29T13:02:01;22.60;1.00
23717;DHT22;22094;52.130;5.598;2023-07-29T13:11:45;23.30;1.00
23717;DHT22;22094;52.130;5.598;2023-07-29T13:16:36;23.50;1.00
23717;DHT22;22094;52.130;5.598;2023-07-29T13:21:28;24.00;1.00
23717;DHT22;22094;52.130;5.598;2023-07-29T13:26:19;23.80;1.00
23717;DHT22;22094;52.130;5.598;2023-07-29T13:28:45;23.40;1.00
23717;DHT22;22094;52.130;5.598;2023-07-29T13:43:22;24.80;1.00
23717;DHT22;22094;52.130;5.598;2023-07-29T13:53:12;24.90;1.00
23717;DHT22;22094;52.130;5.598;2023-07-29T14:02:55;24.60;1.00
23717;DHT22;22094;52.130;5.598;2023-07-29T14:07:47;25.10;1.00
23717;DHT22;22094;52.130;5.598;2023-07-29T14:10:15;25.50;1.00
23717;DHT22;22094;52.130;5.598;2023-07-29T14:17:33;27.00;1.00
23717;DHT22;22094;52.130;5.598;2023-07-29T14:24:51;25.80;1.00
23717;DHT22;22094;52.130;5.598;2023-07-29T14:59:01;28.60;99.90
23717;DHT22;22094;52.130;5.598;2023-07-29T15:01:27;28.30;99.90
23717;DHT22;22094;52.130;5.598;2023-07-29T15:06:19;27.20;99.90
23717;DHT22;22094;52.130;5.598;2023-07-29T15:08:47;26.00;99.90
23717;DHT22;22094;52.130;5.598;2023-07-29T15:35:38;28.40;99.90
23717;DHT22;22094;52.130;5.598;2023-07-29T15:50:15;26.10;99.90
23717;DHT22;22094;52.130;5.598;2023-07-29T15:55:09;24.50;99.90
23717;DHT22;22094;52.130;5.598;2023-07-29T15:57:37;26.30;99.90
23717;DHT22;22094;52.130;5.598;2023-07-29T16:00:04;24.10;99.90
23717;DHT22;22094;52.130;5.598;2023-07-29T16:07:22;20.90;1.00
23717;DHT22;22094;52.130;5.598;2023-07-29T16:09:48;21.90;18.40
23717;DHT22;22094;52.130;5.598;2023-07-29T16:12:13;21.10;1.00
23717;DHT22;22094;52.130;5.598;2023-07-29T16:14:39;20.00;99.90
23717;DHT22;22094;52.130;5.598;2023-07-29T16:17:04;22.20;99.90
23717;DHT22;22094;52.130;5.598;2023-07-29T16:19:30;25.10;1.00
23717;DHT22;22094;52.130;5.598;2023-07-29T16:21:55;26.20;1.00
23717;DHT22;22094;52.130;5.598;2023-07-29T16:24:21;25.70;1.00
23717;DHT22;22094;52.130;5.598;2023-07-29T16:29:13;25.20;1.00
23717;DHT22;22094;52.130;5.598;2023-07-29T16:31:39;23.60;1.00
23717;DHT22;22094;52.130;5.598;2023-07-29T16:34:04;24.10;1.00
23717;DHT22;22094;52.130;5.598;2023-07-29T16:36:30;23.60;1.00
23717;DHT22;22094;52.130;5.598;2023-07-29T16:43:48;25.20;1.00
23717;DHT22;22094;52.130;5.598;2023-07-29T16:46:13;26.00;1.00
23717;DHT22;22094;52.130;5.598;2023-07-29T16:51:05;26.40;1.00
23717;DHT22;22094;52.130;5.598;2023-07-29T16:55:57;25.70;1.00
23717;DHT22;22094;52.130;5.598;2023-07-29T16:58:22;26.00;1.00
23717;DHT22;22094;52.130;5.598;2023-07-29T17:08:09;26.10;1.00
23717;DHT22;22094;52.130;5.598;2023-07-29T17:10:34;25.60;1.00
23717;DHT22;22094;52.130;5.598;2023-07-29T17:13:00;26.00;1.00
23717;DHT22;22094;52.130;5.598;2023-07-29T17:15:26;25.70;1.00
23717;DHT22;22094;52.130;5.598;2023-07-29T17:25:11;26.20;1.00
23717;DHT22;22094;52.130;5.598;2023-07-29T17:30:02;22.90;1.00
23717;DHT22;22094;52.130;5.598;2023-07-29T17:32:28;22.70;1.00
23717;DHT22;22094;52.130;5.598;2023-07-29T17:34:54;22.30;1.00
23717;DHT22;22094;52.130;5.598;2023-07-29T17:37:19;22.30;1.00
23717;DHT22;22094;52.130;5.598;2023-07-29T17:42:11;22.30;1.00
23717;DHT22;22094;52.130;5.598;2023-07-29T17:44:37;22.40;1.00
23717;DHT22;22094;52.130;5.598;2023-07-29T17:47:02;23.10;1.00
23717;DHT22;22094;52.130;5.598;2023-07-29T17:51:54;21.80;1.00
23717;DHT22;22094;52.130;5.598;2023-07-29T17:54:19;22.30;1.00
23717;DHT22;22094;52.130;5.598;2023-07-29T17:56:45;22.10;1.00
23717;DHT22;22094;52.130;5.598;2023-07-29T17:59:10;21.90;1.00
23717;DHT22;22094;52.130;5.598;2023-07-29T18:04:02;21.60;1.00
23717;DHT22;22094;52.130;5.598;2023-07-29T18:06:28;21.60;1.00
23717;DHT22;22094;52.130;5.598;2023-07-29T18:08:53;21.70;1.00
23717;DHT22;22094;52.130;5.598;2023-07-29T18:13:45;22.70;1.00
23717;DHT22;22094;52.130;5.598;2023-07-29T18:16:10;21.60;1.00
23717;DHT22;22094;52.130;5.598;2023-07-29T18:21:04;24.30;1.00
23717;DHT22;22094;52.130;5.598;2023-07-29T18:23:29;22.20;1.00
23717;DHT22;22094;52.130;5.598;2023-07-29T18:25:55;24.80;1.00
23717;DHT22;22094;52.130;5.598;2023-07-29T18:35:41;21.90;1.00
23717;DHT22;22094;52.130;5.598;2023-07-29T18:38:07;21.70;1.00
23717;DHT22;22094;52.130;5.598;2023-07-29T18:40:33;21.70;1.00
23717;DHT22;22094;52.130;5.598;2023-07-29T18:42:59;21.40;1.00
23717;DHT22;22094;52.130;5.598;2023-07-29T18:45:24;20.70;1.00
23717;DHT22;22094;52.130;5.598;2023-07-29T18:47:50;20.80;1.00
23717;DHT22;22094;52.130;5.598;2023-07-29T18:50:16;20.60;1.00
23717;DHT22;22094;52.130;5.598;2023-07-29T18:52:42;20.40;1.00
23717;DHT22;22094;52.130;5.598;2023-07-29T18:55:08;20.20;1.00
23717;DHT22;22094;52.130;5.598;2023-07-29T18:57:33;20.20;1.00
23717;DHT22;22094;52.130;5.598;2023-07-29T18:59:59;20.10;1.00
23717;DHT22;22094;52.130;5.598;2023-07-29T19:02:26;19.90;1.00
23717;DHT22;22094;52.130;5.598;2023-07-29T19:04:52;19.80;1.00
23717;DHT22;22094;52.130;5.598;2023-07-29T19:07:18;19.70;1.00
23717;DHT22;22094;52.130;5.598;2023-07-29T19:09:45;19.60;1.00
23717;DHT22;22094;52.130;5.598;2023-07-29T19:12:11;19.40;1.00
23717;DHT22;22094;52.130;5.598;2023-07-29T19:14:41;19.40;1.00
23717;DHT22;22094;52.130;5.598;2023-07-29T19:17:07;19.20;1.00
23717;DHT22;22094;52.130;5.598;2023-07-29T19:19:33;19.20;1.00
23717;DHT22;22094;52.130;5.598;2023-07-29T19:21:59;19.00;1.00
23717;DHT22;22094;52.130;5.598;2023-07-29T19:24:24;18.90;1.00
23717;DHT22;22094;52.130;5.598;2023-07-29T19:26:50;18.80;1.00
23717;DHT22;22094;52.130;5.598;2023-07-29T19:29:16;18.60;1.00
23717;DHT22;22094;52.130;5.598;2023-07-29T19:31:42;18.50;1.00
23717;DHT22;22094;52.130;5.598;2023-07-29T19:34:08;18.40;1.00
23717;DHT22;22094;52.130;5.598;2023-07-29T19:36:34;18.30;1.00
23717;DHT22;22094;52.130;5.598;2023-07-29T19:39:02;18.10;1.00
23717;DHT22;22094;52.130;5.598;2023-07-29T19:41:28;18.10;1.00
23717;DHT22;22094;52.130;5.598;2023-07-29T19:43:54;18.00;1.00
23717;DHT22;22094;52.130;5.598;2023-07-29T19:46:20;18.00;1.00
23717;DHT22;22094;52.130;5.598;2023-07-29T19:48:45;18.20;1.00
23717;DHT22;22094;52.130;5.598;2023-07-29T19:51:12;17.90;1.00
23717;DHT22;22094;52.130;5.598;2023-07-29T19:53:38;17.90;1.00
23717;DHT22;22094;52.130;5.598;2023-07-29T19:56:04;17.90;1.00
23717;DHT22;22094;52.130;5.598;2023-07-29T19:58:29;17.80;1.00
23717;DHT22;22094;52.130;5.598;2023-07-29T20:00:55;17.70;1.00
23717;DHT22;22094;52.130;5.598;2023-07-29T20:03:21;17.60;1.00
23717;DHT22;22094;52.130;5.598;2023-07-29T20:05:46;17.60;1.00
23717;DHT22;22094;52.130;5.598;2023-07-29T20:08:12;17.40;1.00
23717;DHT22;22094;52.130;5.598;2023-07-29T20:10:38;17.50;1.00
23717;DHT22;22094;52.130;5.598;2023-07-29T20:13:03;17.30;1.00
23717;DHT22;22094;52.130;5.598;2023-07-29T20:15:29;17.30;1.00
23717;DHT22;22094;52.130;5.598;2023-07-29T20:17:55;17.40;1.00
23717;DHT22;22094;52.130;5.598;2023-07-29T20:20:20;17.10;1.00